sensor_id;sensor_type;location;lat;lon;timestamp;P1;durP1;ratioP1;P2;durP2;ratioP2
32321;SDS011;61553;48.994;8.940;2023-01-26T00:02:04;37.17;;;17.88;;
32321;SDS011;61553;48.994;8.940;2023-01-26T00:04:30;31.23;;;16.60;;
32321;SDS011;61553;48.994;8.940;2023-01-26T00:06:55;33.28;;;16.30;;
32321;SDS011;61553;48.994;8.940;2023-01-26T00:09:21;34.33;;;17.30;;
32321;SDS011;61553;48.994;8.940;2023-01-26T00:11:46;36.67;;;17.35;;
32321;SDS011;61553;48.994;8.940;2023-01-26T00:14:12;39.45;;;18.08;;
32321;SDS011;61553;48.994;8.940;2023-01-26T00:16:38;35.38;;;16.58;;
32321;SDS011;61553;48.994;8.940;2023-01-26T00:19:04;35.03;;;17.17;;
32321;SDS011;61553;48.994;8.940;2023-01-26T00:21:30;32.83;;;16.58;;
32321;SDS011;61553;48.994;8.940;2023-01-26T00:23:56;32.10;;;16.23;;
32321;SDS011;61553;48.994;8.940;2023-01-26T00:26:22;39.63;;;17.80;;
32321;SDS011;61553;48.994;8.940;2023-01-26T00:28:50;43.05;;;18.08;;
32321;SDS011;61553;48.994;8.940;2023-01-26T00:31:23;34.22;;;16.15;;
32321;SDS011;61553;48.994;8.940;2023-01-26T00:33:50;32.83;;;15.30;;
32321;SDS011;61553;48.994;8.940;2023-01-26T00:36:17;33.65;;;15.75;;
32321;SDS011;61553;48.994;8.940;2023-01-26T00:38:43;32.90;;;16.42;;
32321;SDS011;61553;48.994;8.940;2023-01-26T00:41:09;33.80;;;15.75;;
32321;SDS011;61553;48.994;8.940;2023-01-26T00:43:57;33.95;;;14.82;;
32321;SDS011;61553;48.994;8.940;2023-01-26T00:46:24;33.25;;;15.82;;
32321;SDS011;61553;48.994;8.940;2023-01-26T00:48:49;34.63;;;15.25;;
32321;SDS011;61553;48.994;8.940;2023-01-26T00:51:15;35.90;;;16.15;;
32321;SDS011;61553;48.994;8.940;2023-01-26T00:53:41;31.98;;;14.68;;
32321;SDS011;61553;48.994;8.940;2023-01-26T00:56:06;30.63;;;14.73;;
32321;SDS011;61553;48.994;8.940;2023-01-26T00:58:32;33.90;;;15.25;;
32321;SDS011;61553;48.994;8.940;2023-01-26T01:00:58;29.88;;;14.85;;
32321;SDS011;61553;48.994;8.940;2023-01-26T01:03:23;32.72;;;15.27;;
32321;SDS011;61553;48.994;8.940;2023-01-26T01:05:50;36.53;;;16.30;;
32321;SDS011;61553;48.994;8.940;2023-01-26T01:08:16;25.25;;;13.75;;
32321;SDS011;61553;48.994;8.940;2023-01-26T01:10:41;33.38;;;18.13;;
32321;SDS011;61553;48.994;8.940;2023-01-26T01:13:07;39.78;;;19.50;;
32321;SDS011;61553;48.994;8.940;2023-01-26T01:15:32;33.63;;;15.82;;
32321;SDS011;61553;48.994;8.940;2023-01-26T01:17:58;32.35;;;16.08;;
32321;SDS011;61553;48.994;8.940;2023-01-26T01:20:23;40.85;;;20.10;;
32321;SDS011;61553;48.994;8.940;2023-01-26T01:22:49;34.13;;;17.63;;
32321;SDS011;61553;48.994;8.940;2023-01-26T01:25:16;35.13;;;18.08;;
32321;SDS011;61553;48.994;8.940;2023-01-26T01:27:41;38.88;;;17.55;;
32321;SDS011;61553;48.994;8.940;2023-01-26T01:30:07;36.03;;;16.95;;
32321;SDS011;61553;48.994;8.940;2023-01-26T01:32:36;36.60;;;15.38;;
32321;SDS011;61553;48.994;8.940;2023-01-26T01:35:03;36.20;;;15.35;;
32321;SDS011;61553;48.994;8.940;2023-01-26T01:37:29;30.92;;;15.30;;
32321;SDS011;61553;48.994;8.940;2023-01-26T01:39:55;35.92;;;16.20;;
32321;SDS011;61553;48.994;8.940;2023-01-26T01:42:21;32.60;;;15.88;;
32321;SDS011;61553;48.994;8.940;2023-01-26T01:45:21;34.83;;;16.95;;
32321;SDS011;61553;48.994;8.940;2023-01-26T01:47:53;35.72;;;16.08;;
32321;SDS011;61553;48.994;8.940;2023-01-26T01:50:23;38.28;;;16.50;;
32321;SDS011;61553;48.994;8.940;2023-01-26T01:52:49;34.85;;;15.70;;
32321;SDS011;61553;48.994;8.940;2023-01-26T01:55:17;40.90;;;18.13;;
32321;SDS011;61553;48.994;8.940;2023-01-26T01:57:45;39.90;;;17.40;;
32321;SDS011;61553;48.994;8.940;2023-01-26T02:00:17;47.80;;;17.50;;
32321;SDS011;61553;48.994;8.940;2023-01-26T02:02:45;40.47;;;17.65;;
32321;SDS011;61553;48.994;8.940;2023-01-26T02:05:57;37.28;;;16.85;;
32321;SDS011;61553;48.994;8.940;2023-01-26T02:11:16;35.13;;;14.70;;
32321;SDS011;61553;48.994;8.940;2023-01-26T02:13:48;31.85;;;15.07;;
32321;SDS011;61553;48.994;8.940;2023-01-26T02:16:16;30.73;;;14.07;;
32321;SDS011;61553;48.994;8.940;2023-01-26T02:18:43;33.03;;;15.05;;
32321;SDS011;61553;48.994;8.940;2023-01-26T02:21:10;32.08;;;15.07;;
32321;SDS011;61553;48.994;8.940;2023-01-26T02:23:44;37.45;;;15.75;;
32321;SDS011;61553;48.994;8.940;2023-01-26T02:26:22;36.92;;;16.27;;
32321;SDS011;61553;48.994;8.940;2023-01-26T02:28:50;31.17;;;15.52;;
32321;SDS011;61553;48.994;8.940;2023-01-26T02:31:16;34.08;;;15.18;;
32321;SDS011;61553;48.994;8.940;2023-01-26T02:33:43;37.22;;;17.10;;
32321;SDS011;61553;48.994;8.940;2023-01-26T02:36:31;36.92;;;16.50;;
32321;SDS011;61553;48.994;8.940;2023-01-26T02:41:37;36.70;;;17.38;;
32321;SDS011;61553;48.994;8.940;2023-01-26T02:44:21;38.03;;;17.13;;
32321;SDS011;61553;48.994;8.940;2023-01-26T02:46:47;32.17;;;15.25;;
32321;SDS011;61553;48.994;8.940;2023-01-26T02:49:13;36.70;;;16.10;;
32321;SDS011;61553;48.994;8.940;2023-01-26T02:51:57;31.25;;;14.57;;
32321;SDS011;61553;48.994;8.940;2023-01-26T02:54:23;34.00;;;15.55;;
32321;SDS011;61553;48.994;8.940;2023-01-26T02:57:07;36.28;;;16.98;;
32321;SDS011;61553;48.994;8.940;2023-01-26T02:59:33;34.40;;;16.10;;
32321;SDS011;61553;48.994;8.940;2023-01-26T03:01:59;35.78;;;16.58;;
32321;SDS011;61553;48.994;8.940;2023-01-26T03:04:24;34.65;;;16.50;;
32321;SDS011;61553;48.994;8.940;2023-01-26T03:06:50;39.88;;;17.75;;
32321;SDS011;61553;48.994;8.940;2023-01-26T03:09:15;35.88;;;16.58;;
32321;SDS011;61553;48.994;8.940;2023-01-26T03:11:41;36.00;;;16.27;;
32321;SDS011;61553;48.994;8.940;2023-01-26T03:14:10;41.95;;;17.50;;
32321;SDS011;61553;48.994;8.940;2023-01-26T03:16:37;36.45;;;16.73;;
32321;SDS011;61553;48.994;8.940;2023-01-26T03:19:04;33.88;;;16.27;;
32321;SDS011;61553;48.994;8.940;2023-01-26T03:21:48;42.45;;;17.55;;
32321;SDS011;61553;48.994;8.940;2023-01-26T03:24:32;33.42;;;15.02;;
32321;SDS011;61553;48.994;8.940;2023-01-26T03:27:17;35.50;;;15.90;;
32321;SDS011;61553;48.994;8.940;2023-01-26T03:29:51;35.17;;;17.00;;
32321;SDS011;61553;48.994;8.940;2023-01-26T03:32:18;35.78;;;17.83;;
32321;SDS011;61553;48.994;8.940;2023-01-26T03:34:44;36.97;;;16.98;;
32321;SDS011;61553;48.994;8.940;2023-01-26T03:37:09;38.75;;;18.80;;
32321;SDS011;61553;48.994;8.940;2023-01-26T03:39:35;35.03;;;16.10;;
32321;SDS011;61553;48.994;8.940;2023-01-26T03:42:19;34.83;;;16.73;;
32321;SDS011;61553;48.994;8.940;2023-01-26T03:45:04;40.08;;;17.33;;
32321;SDS011;61553;48.994;8.940;2023-01-26T03:47:48;38.35;;;18.65;;
32321;SDS011;61553;48.994;8.940;2023-01-26T03:50:32;38.15;;;17.88;;
32321;SDS011;61553;48.994;8.940;2023-01-26T03:53:18;41.63;;;19.33;;
32321;SDS011;61553;48.994;8.940;2023-01-26T03:56:04;38.85;;;17.75;;
32321;SDS011;61553;48.994;8.940;2023-01-26T04:01:14;33.47;;;15.75;;
32321;SDS011;61553;48.994;8.940;2023-01-26T04:03:44;37.50;;;15.73;;
32321;SDS011;61553;48.994;8.940;2023-01-26T04:06:32;41.70;;;16.88;;
32321;SDS011;61553;48.994;8.940;2023-01-26T04:09:17;34.28;;;17.95;;
32321;SDS011;61553;48.994;8.940;2023-01-26T04:11:43;39.60;;;17.30;;
32321;SDS011;61553;48.994;8.940;2023-01-26T04:14:10;38.25;;;16.25;;
32321;SDS011;61553;48.994;8.940;2023-01-26T04:16:56;37.60;;;17.25;;
32321;SDS011;61553;48.994;8.940;2023-01-26T04:19:41;40.22;;;16.25;;
32321;SDS011;61553;48.994;8.940;2023-01-26T04:22:25;34.42;;;16.33;;
32321;SDS011;61553;48.994;8.940;2023-01-26T04:24:51;35.40;;;15.88;;
32321;SDS011;61553;48.994;8.940;2023-01-26T04:27:17;35.08;;;16.67;;
32321;SDS011;61553;48.994;8.940;2023-01-26T04:29:42;33.75;;;15.68;;
32321;SDS011;61553;48.994;8.940;2023-01-26T04:32:08;42.95;;;18.52;;
32321;SDS011;61553;48.994;8.940;2023-01-26T04:34:34;37.78;;;16.08;;
32321;SDS011;61553;48.994;8.940;2023-01-26T04:36:59;33.90;;;14.75;;
32321;SDS011;61553;48.994;8.940;2023-01-26T04:39:25;35.22;;;15.70;;
32321;SDS011;61553;48.994;8.940;2023-01-26T04:41:50;31.92;;;15.80;;
32321;SDS011;61553;48.994;8.940;2023-01-26T04:44:16;44.90;;;23.40;;
32321;SDS011;61553;48.994;8.940;2023-01-26T04:46:42;35.03;;;16.25;;
32321;SDS011;61553;48.994;8.940;2023-01-26T04:49:07;36.65;;;17.85;;
32321;SDS011;61553;48.994;8.940;2023-01-26T04:51:34;46.65;;;22.60;;
32321;SDS011;61553;48.994;8.940;2023-01-26T04:53:59;30.52;;;16.75;;
32321;SDS011;61553;48.994;8.940;2023-01-26T04:56:26;29.15;;;14.38;;
32321;SDS011;61553;48.994;8.940;2023-01-26T04:58:54;32.15;;;14.52;;
32321;SDS011;61553;48.994;8.940;2023-01-26T05:01:22;37.28;;;15.30;;
32321;SDS011;61553;48.994;8.940;2023-01-26T05:03:47;33.03;;;14.18;;
32321;SDS011;61553;48.994;8.940;2023-01-26T05:06:13;29.98;;;14.05;;
32321;SDS011;61553;48.994;8.940;2023-01-26T05:08:39;28.95;;;13.95;;
32321;SDS011;61553;48.994;8.940;2023-01-26T05:11:04;35.95;;;15.13;;
32321;SDS011;61553;48.994;8.940;2023-01-26T05:13:30;30.02;;;13.07;;
32321;SDS011;61553;48.994;8.940;2023-01-26T05:15:56;28.52;;;12.73;;
32321;SDS011;61553;48.994;8.940;2023-01-26T05:18:22;32.85;;;14.70;;
32321;SDS011;61553;48.994;8.940;2023-01-26T05:20:48;25.02;;;13.35;;
32321;SDS011;61553;48.994;8.940;2023-01-26T05:23:13;29.05;;;13.50;;
32321;SDS011;61553;48.994;8.940;2023-01-26T05:25:39;30.67;;;15.90;;
32321;SDS011;61553;48.994;8.940;2023-01-26T05:28:05;30.27;;;14.80;;
32321;SDS011;61553;48.994;8.940;2023-01-26T05:30:31;25.08;;;11.63;;
32321;SDS011;61553;48.994;8.940;2023-01-26T05:33:03;25.30;;;11.73;;
32321;SDS011;61553;48.994;8.940;2023-01-26T05:35:29;27.52;;;11.93;;
32321;SDS011;61553;48.994;8.940;2023-01-26T05:37:55;29.38;;;13.38;;
32321;SDS011;61553;48.994;8.940;2023-01-26T05:40:20;29.38;;;11.23;;
32321;SDS011;61553;48.994;8.940;2023-01-26T05:42:47;25.27;;;11.55;;
32321;SDS011;61553;48.994;8.940;2023-01-26T05:45:12;26.25;;;10.38;;
32321;SDS011;61553;48.994;8.940;2023-01-26T05:47:38;24.75;;;11.05;;
32321;SDS011;61553;48.994;8.940;2023-01-26T05:50:04;25.98;;;11.48;;
32321;SDS011;61553;48.994;8.940;2023-01-26T05:52:30;26.92;;;12.07;;
32321;SDS011;61553;48.994;8.940;2023-01-26T05:54:57;31.05;;;13.07;;
32321;SDS011;61553;48.994;8.940;2023-01-26T05:57:22;26.90;;;11.35;;
32321;SDS011;61553;48.994;8.940;2023-01-26T05:59:48;24.00;;;11.00;;
32321;SDS011;61553;48.994;8.940;2023-01-26T06:02:14;23.98;;;11.02;;
32321;SDS011;61553;48.994;8.940;2023-01-26T06:04:39;24.45;;;11.85;;
32321;SDS011;61553;48.994;8.940;2023-01-26T06:07:05;26.40;;;12.07;;
32321;SDS011;61553;48.994;8.940;2023-01-26T06:09:31;28.40;;;12.90;;
32321;SDS011;61553;48.994;8.940;2023-01-26T06:11:57;28.80;;;13.00;;
32321;SDS011;61553;48.994;8.940;2023-01-26T06:14:22;29.88;;;11.27;;
32321;SDS011;61553;48.994;8.940;2023-01-26T06:16:48;25.85;;;12.07;;
32321;SDS011;61553;48.994;8.940;2023-01-26T06:19:13;26.50;;;12.38;;
32321;SDS011;61553;48.994;8.940;2023-01-26T06:21:39;27.40;;;12.82;;
32321;SDS011;61553;48.994;8.940;2023-01-26T06:24:05;26.83;;;12.05;;
32321;SDS011;61553;48.994;8.940;2023-01-26T06:26:31;27.75;;;12.45;;
32321;SDS011;61553;48.994;8.940;2023-01-26T06:28:56;24.05;;;11.82;;
32321;SDS011;61553;48.994;8.940;2023-01-26T06:31:22;31.17;;;13.93;;
32321;SDS011;61553;48.994;8.940;2023-01-26T06:33:48;34.25;;;15.80;;
32321;SDS011;61553;48.994;8.940;2023-01-26T06:36:14;30.85;;;12.25;;
32321;SDS011;61553;48.994;8.940;2023-01-26T06:38:44;29.13;;;13.40;;
32321;SDS011;61553;48.994;8.940;2023-01-26T06:41:11;29.23;;;11.00;;
32321;SDS011;61553;48.994;8.940;2023-01-26T06:43:37;30.85;;;13.43;;
32321;SDS011;61553;48.994;8.940;2023-01-26T06:46:03;104.57;;;43.00;;
32321;SDS011;61553;48.994;8.940;2023-01-26T06:48:31;48.58;;;21.42;;
32321;SDS011;61553;48.994;8.940;2023-01-26T06:53:46;28.40;;;14.02;;
32321;SDS011;61553;48.994;8.940;2023-01-26T06:56:19;29.60;;;12.88;;
32321;SDS011;61553;48.994;8.940;2023-01-26T06:58:45;31.42;;;12.98;;
32321;SDS011;61553;48.994;8.940;2023-01-26T07:01:21;27.05;;;12.15;;
32321;SDS011;61553;48.994;8.940;2023-01-26T07:03:48;29.30;;;12.00;;
32321;SDS011;61553;48.994;8.940;2023-01-26T07:06:15;24.27;;;11.20;;
32321;SDS011;61553;48.994;8.940;2023-01-26T07:08:41;44.25;;;18.23;;
32321;SDS011;61553;48.994;8.940;2023-01-26T07:11:07;29.50;;;12.57;;
32321;SDS011;61553;48.994;8.940;2023-01-26T07:13:34;25.00;;;12.02;;
32321;SDS011;61553;48.994;8.940;2023-01-26T07:16:00;33.42;;;13.50;;
32321;SDS011;61553;48.994;8.940;2023-01-26T07:18:30;27.95;;;12.77;;
32321;SDS011;61553;48.994;8.940;2023-01-26T07:21:06;30.45;;;13.07;;
32321;SDS011;61553;48.994;8.940;2023-01-26T07:23:34;31.83;;;12.57;;
32321;SDS011;61553;48.994;8.940;2023-01-26T07:25:59;28.23;;;12.98;;
32321;SDS011;61553;48.994;8.940;2023-01-26T07:28:25;27.30;;;12.55;;
32321;SDS011;61553;48.994;8.940;2023-01-26T07:30:51;31.70;;;13.52;;
32321;SDS011;61553;48.994;8.940;2023-01-26T07:33:21;28.15;;;12.65;;
32321;SDS011;61553;48.994;8.940;2023-01-26T07:35:46;33.25;;;12.32;;
32321;SDS011;61553;48.994;8.940;2023-01-26T07:38:12;35.42;;;16.70;;
32321;SDS011;61553;48.994;8.940;2023-01-26T07:40:37;34.78;;;16.70;;
32321;SDS011;61553;48.994;8.940;2023-01-26T07:43:03;35.53;;;17.23;;
32321;SDS011;61553;48.994;8.940;2023-01-26T07:45:29;32.20;;;13.18;;
32321;SDS011;61553;48.994;8.940;2023-01-26T07:47:54;33.47;;;14.27;;
32321;SDS011;61553;48.994;8.940;2023-01-26T07:50:20;30.67;;;14.35;;
32321;SDS011;61553;48.994;8.940;2023-01-26T07:52:47;27.80;;;13.32;;
32321;SDS011;61553;48.994;8.940;2023-01-26T07:55:13;32.80;;;15.93;;
32321;SDS011;61553;48.994;8.940;2023-01-26T07:57:39;30.60;;;12.80;;
32321;SDS011;61553;48.994;8.940;2023-01-26T08:00:05;26.33;;;11.68;;
32321;SDS011;61553;48.994;8.940;2023-01-26T08:02:31;31.42;;;14.13;;
32321;SDS011;61553;48.994;8.940;2023-01-26T08:04:57;31.02;;;13.10;;
32321;SDS011;61553;48.994;8.940;2023-01-26T08:07:24;34.08;;;14.07;;
32321;SDS011;61553;48.994;8.940;2023-01-26T08:09:50;28.55;;;12.32;;
32321;SDS011;61553;48.994;8.940;2023-01-26T08:12:15;30.35;;;13.07;;
32321;SDS011;61553;48.994;8.940;2023-01-26T08:14:41;32.83;;;13.35;;
32321;SDS011;61553;48.994;8.940;2023-01-26T08:17:06;31.73;;;13.98;;
32321;SDS011;61553;48.994;8.940;2023-01-26T08:19:32;36.88;;;15.00;;
32321;SDS011;61553;48.994;8.940;2023-01-26T08:21:58;34.83;;;17.80;;
32321;SDS011;61553;48.994;8.940;2023-01-26T08:24:23;30.58;;;13.85;;
32321;SDS011;61553;48.994;8.940;2023-01-26T08:26:50;30.15;;;14.93;;
32321;SDS011;61553;48.994;8.940;2023-01-26T08:29:16;33.30;;;13.73;;
32321;SDS011;61553;48.994;8.940;2023-01-26T08:31:42;36.33;;;14.38;;
32321;SDS011;61553;48.994;8.940;2023-01-26T08:34:07;29.88;;;13.70;;
32321;SDS011;61553;48.994;8.940;2023-01-26T08:36:33;29.02;;;13.50;;
32321;SDS011;61553;48.994;8.940;2023-01-26T08:38:59;32.78;;;14.13;;
32321;SDS011;61553;48.994;8.940;2023-01-26T08:41:26;34.67;;;13.50;;
32321;SDS011;61553;48.994;8.940;2023-01-26T08:43:52;29.90;;;13.50;;
32321;SDS011;61553;48.994;8.940;2023-01-26T08:46:17;27.90;;;12.25;;
32321;SDS011;61553;48.994;8.940;2023-01-26T08:48:43;25.50;;;11.43;;
32321;SDS011;61553;48.994;8.940;2023-01-26T08:51:09;27.35;;;11.15;;
32321;SDS011;61553;48.994;8.940;2023-01-26T08:53:35;27.90;;;11.63;;
32321;SDS011;61553;48.994;8.940;2023-01-26T08:56:02;30.42;;;13.63;;
32321;SDS011;61553;48.994;8.940;2023-01-26T08:58:30;26.02;;;11.18;;
32321;SDS011;61553;48.994;8.940;2023-01-26T09:00:56;28.42;;;11.52;;
32321;SDS011;61553;48.994;8.940;2023-01-26T09:03:22;26.05;;;11.52;;
32321;SDS011;61553;48.994;8.940;2023-01-26T09:05:48;26.60;;;11.90;;
32321;SDS011;61553;48.994;8.940;2023-01-26T09:08:13;32.10;;;12.90;;
32321;SDS011;61553;48.994;8.940;2023-01-26T09:10:39;27.75;;;12.02;;
32321;SDS011;61553;48.994;8.940;2023-01-26T09:13:04;24.05;;;11.82;;
32321;SDS011;61553;48.994;8.940;2023-01-26T09:15:30;34.83;;;15.88;;
32321;SDS011;61553;48.994;8.940;2023-01-26T09:17:56;31.08;;;12.30;;
32321;SDS011;61553;48.994;8.940;2023-01-26T09:20:21;27.55;;;13.98;;
32321;SDS011;61553;48.994;8.940;2023-01-26T09:22:47;32.28;;;14.55;;
32321;SDS011;61553;48.994;8.940;2023-01-26T09:25:13;25.27;;;11.90;;
32321;SDS011;61553;48.994;8.940;2023-01-26T09:27:39;29.20;;;13.30;;
32321;SDS011;61553;48.994;8.940;2023-01-26T09:30:05;24.17;;;10.43;;
32321;SDS011;61553;48.994;8.940;2023-01-26T09:32:32;26.25;;;11.35;;
32321;SDS011;61553;48.994;8.940;2023-01-26T09:34:57;21.63;;;10.02;;
32321;SDS011;61553;48.994;8.940;2023-01-26T09:37:23;20.48;;;9.63;;
32321;SDS011;61553;48.994;8.940;2023-01-26T09:39:49;24.48;;;9.95;;
32321;SDS011;61553;48.994;8.940;2023-01-26T09:44:51;38.67;;;15.10;;
32321;SDS011;61553;48.994;8.940;2023-01-26T09:50:30;21.30;;;9.32;;
32321;SDS011;61553;48.994;8.940;2023-01-26T09:53:06;21.27;;;9.60;;
32321;SDS011;61553;48.994;8.940;2023-01-26T09:55:50;20.98;;;9.73;;
32321;SDS011;61553;48.994;8.940;2023-01-26T09:58:36;22.77;;;10.20;;
32321;SDS011;61553;48.994;8.940;2023-01-26T10:01:04;21.75;;;9.68;;
32321;SDS011;61553;48.994;8.940;2023-01-26T10:04:00;20.92;;;9.55;;
32321;SDS011;61553;48.994;8.940;2023-01-26T10:06:47;23.38;;;9.77;;
32321;SDS011;61553;48.994;8.940;2023-01-26T10:09:14;26.10;;;9.63;;
32321;SDS011;61553;48.994;8.940;2023-01-26T10:11:50;21.52;;;8.75;;
32321;SDS011;61553;48.994;8.940;2023-01-26T10:14:30;20.15;;;8.80;;
32321;SDS011;61553;48.994;8.940;2023-01-26T10:17:16;20.75;;;8.30;;
32321;SDS011;61553;48.994;8.940;2023-01-26T10:19:56;20.25;;;8.35;;
32321;SDS011;61553;48.994;8.940;2023-01-26T10:22:35;22.35;;;9.55;;
32321;SDS011;61553;48.994;8.940;2023-01-26T10:27:54;23.02;;;9.23;;
32321;SDS011;61553;48.994;8.940;2023-01-26T10:30:20;22.20;;;9.35;;
32321;SDS011;61553;48.994;8.940;2023-01-26T10:32:46;19.92;;;9.45;;
32321;SDS011;61553;48.994;8.940;2023-01-26T10:35:17;19.08;;;8.70;;
32321;SDS011;61553;48.994;8.940;2023-01-26T10:37:44;19.15;;;8.27;;
32321;SDS011;61553;48.994;8.940;2023-01-26T10:40:10;18.83;;;8.13;;
32321;SDS011;61553;48.994;8.940;2023-01-26T10:42:37;19.08;;;8.07;;
32321;SDS011;61553;48.994;8.940;2023-01-26T10:45:22;20.17;;;8.23;;
32321;SDS011;61553;48.994;8.940;2023-01-26T10:48:01;19.20;;;8.20;;
32321;SDS011;61553;48.994;8.940;2023-01-26T10:50:30;18.17;;;8.57;;
32321;SDS011;61553;48.994;8.940;2023-01-26T10:52:57;22.02;;;9.80;;
32321;SDS011;61553;48.994;8.940;2023-01-26T10:55:25;22.52;;;9.00;;
32321;SDS011;61553;48.994;8.940;2023-01-26T10:57:51;21.55;;;8.93;;
32321;SDS011;61553;48.994;8.940;2023-01-26T11:02:48;22.10;;;9.73;;
32321;SDS011;61553;48.994;8.940;2023-01-26T11:07:47;26.67;;;11.05;;
32321;SDS011;61553;48.994;8.940;2023-01-26T11:10:19;23.73;;;11.10;;
32321;SDS011;61553;48.994;8.940;2023-01-26T11:12:45;63.20;;;30.60;;
32321;SDS011;61553;48.994;8.940;2023-01-26T11:15:15;32.55;;;13.57;;
32321;SDS011;61553;48.994;8.940;2023-01-26T11:17:59;25.85;;;11.48;;
32321;SDS011;61553;48.994;8.940;2023-01-26T11:23:20;24.98;;;10.65;;
32321;SDS011;61553;48.994;8.940;2023-01-26T11:28:56;32.25;;;11.77;;
32321;SDS011;61553;48.994;8.940;2023-01-26T11:39:54;35.42;;;17.48;;
32321;SDS011;61553;48.994;8.940;2023-01-26T11:47:47;31.23;;;14.02;;
32321;SDS011;61553;48.994;8.940;2023-01-26T12:01:08;30.73;;;13.25;;
32321;SDS011;61553;48.994;8.940;2023-01-26T12:03:48;31.05;;;12.55;;
32321;SDS011;61553;48.994;8.940;2023-01-26T12:06:19;29.75;;;11.52;;
32321;SDS011;61553;48.994;8.940;2023-01-26T12:20:00;34.40;;;15.43;;
32321;SDS011;61553;48.994;8.940;2023-01-26T12:22:46;33.22;;;13.65;;
32321;SDS011;61553;48.994;8.940;2023-01-26T12:31:05;35.97;;;14.23;;
32321;SDS011;61553;48.994;8.940;2023-01-26T12:33:33;26.83;;;13.20;;
32321;SDS011;61553;48.994;8.940;2023-01-26T12:38:39;26.35;;;12.07;;
32321;SDS011;61553;48.994;8.940;2023-01-26T12:43:40;29.27;;;12.23;;
32321;SDS011;61553;48.994;8.940;2023-01-26T12:46:14;30.95;;;12.90;;
32321;SDS011;61553;48.994;8.940;2023-01-26T12:48:48;29.42;;;11.68;;
32321;SDS011;61553;48.994;8.940;2023-01-26T12:51:37;31.40;;;12.57;;
32321;SDS011;61553;48.994;8.940;2023-01-26T12:54:16;29.63;;;13.18;;
32321;SDS011;61553;48.994;8.940;2023-01-26T12:56:56;25.63;;;11.73;;
32321;SDS011;61553;48.994;8.940;2023-01-26T12:59:30;26.25;;;11.75;;
32321;SDS011;61553;48.994;8.940;2023-01-26T13:01:58;25.75;;;12.00;;
32321;SDS011;61553;48.994;8.940;2023-01-26T13:04:44;25.02;;;11.93;;
32321;SDS011;61553;48.994;8.940;2023-01-26T13:16:08;23.13;;;9.90;;
32321;SDS011;61553;48.994;8.940;2023-01-26T13:18:48;25.73;;;11.90;;
32321;SDS011;61553;48.994;8.940;2023-01-26T13:31:59;22.63;;;10.38;;
32321;SDS011;61553;48.994;8.940;2023-01-26T13:34:35;19.88;;;10.57;;
32321;SDS011;61553;48.994;8.940;2023-01-26T13:37:12;23.83;;;10.30;;
32321;SDS011;61553;48.994;8.940;2023-01-26T13:39:57;35.73;;;16.20;;
32321;SDS011;61553;48.994;8.940;2023-01-26T13:42:37;23.98;;;10.70;;
32321;SDS011;61553;48.994;8.940;2023-01-26T13:45:15;22.20;;;10.63;;
32321;SDS011;61553;48.994;8.940;2023-01-26T13:47:48;22.15;;;10.07;;
32321;SDS011;61553;48.994;8.940;2023-01-26T13:50:20;20.42;;;10.18;;
32321;SDS011;61553;48.994;8.940;2023-01-26T13:52:46;21.98;;;9.73;;
32321;SDS011;61553;48.994;8.940;2023-01-26T13:55:18;21.48;;;9.70;;
32321;SDS011;61553;48.994;8.940;2023-01-26T13:57:48;18.45;;;9.30;;
32321;SDS011;61553;48.994;8.940;2023-01-26T14:00:14;16.60;;;8.65;;
32321;SDS011;61553;48.994;8.940;2023-01-26T14:02:40;19.33;;;9.00;;
32321;SDS011;61553;48.994;8.940;2023-01-26T14:05:20;17.67;;;8.80;;
32321;SDS011;61553;48.994;8.940;2023-01-26T14:07:47;20.45;;;9.02;;
32321;SDS011;61553;48.994;8.940;2023-01-26T14:12:52;19.45;;;9.38;;
32321;SDS011;61553;48.994;8.940;2023-01-26T14:15:26;16.55;;;7.60;;
32321;SDS011;61553;48.994;8.940;2023-01-26T14:17:56;20.02;;;9.32;;
32321;SDS011;61553;48.994;8.940;2023-01-26T14:20:30;14.90;;;8.05;;
32321;SDS011;61553;48.994;8.940;2023-01-26T14:25:47;20.75;;;9.55;;
32321;SDS011;61553;48.994;8.940;2023-01-26T14:28:25;24.42;;;13.70;;
32321;SDS011;61553;48.994;8.940;2023-01-26T14:31:05;21.73;;;11.48;;
32321;SDS011;61553;48.994;8.940;2023-01-26T14:33:36;21.20;;;8.85;;
32321;SDS011;61553;48.994;8.940;2023-01-26T14:36:03;17.80;;;9.32;;
32321;SDS011;61553;48.994;8.940;2023-01-26T14:38:30;18.30;;;9.00;;
32321;SDS011;61553;48.994;8.940;2023-01-26T14:41:09;18.90;;;8.43;;
32321;SDS011;61553;48.994;8.940;2023-01-26T14:43:41;26.00;;;11.32;;
32321;SDS011;61553;48.994;8.940;2023-01-26T14:46:14;19.45;;;10.13;;
32321;SDS011;61553;48.994;8.940;2023-01-26T14:51:16;18.65;;;10.25;;
32321;SDS011;61553;48.994;8.940;2023-01-26T14:53:53;18.95;;;9.35;;
32321;SDS011;61553;48.994;8.940;2023-01-26T14:56:36;25.20;;;11.02;;
32321;SDS011;61553;48.994;8.940;2023-01-26T14:59:04;20.80;;;9.90;;
32321;SDS011;61553;48.994;8.940;2023-01-26T15:01:31;18.08;;;9.80;;
32321;SDS011;61553;48.994;8.940;2023-01-26T15:03:58;22.75;;;10.07;;
32321;SDS011;61553;48.994;8.940;2023-01-26T15:06:46;18.38;;;9.82;;
32321;SDS011;61553;48.994;8.940;2023-01-26T15:09:24;19.75;;;9.95;;
32321;SDS011;61553;48.994;8.940;2023-01-26T15:11:55;22.48;;;11.30;;
32321;SDS011;61553;48.994;8.940;2023-01-26T15:17:25;18.10;;;9.60;;
32321;SDS011;61553;48.994;8.940;2023-01-26T15:20:00;20.33;;;10.38;;
32321;SDS011;61553;48.994;8.940;2023-01-26T15:22:25;20.55;;;10.45;;
32321;SDS011;61553;48.994;8.940;2023-01-26T15:24:58;21.77;;;11.07;;
32321;SDS011;61553;48.994;8.940;2023-01-26T15:27:28;22.25;;;12.25;;
32321;SDS011;61553;48.994;8.940;2023-01-26T15:29:56;22.00;;;10.90;;
32321;SDS011;61553;48.994;8.940;2023-01-26T15:32:31;21.80;;;10.25;;
32321;SDS011;61553;48.994;8.940;2023-01-26T15:35:21;24.80;;;12.48;;
32321;SDS011;61553;48.994;8.940;2023-01-26T15:38:11;20.35;;;10.48;;
32321;SDS011;61553;48.994;8.940;2023-01-26T15:40:37;21.27;;;10.88;;
32321;SDS011;61553;48.994;8.940;2023-01-26T15:43:24;22.83;;;11.07;;
32321;SDS011;61553;48.994;8.940;2023-01-26T15:48:17;21.73;;;10.88;;
32321;SDS011;61553;48.994;8.940;2023-01-26T15:50:42;19.52;;;10.30;;
32321;SDS011;61553;48.994;8.940;2023-01-26T15:53:12;22.60;;;11.63;;
32321;SDS011;61553;48.994;8.940;2023-01-26T15:55:38;21.05;;;12.30;;
32321;SDS011;61553;48.994;8.940;2023-01-26T15:58:05;28.83;;;14.00;;
32321;SDS011;61553;48.994;8.940;2023-01-26T16:00:30;25.83;;;12.73;;
32321;SDS011;61553;48.994;8.940;2023-01-26T16:02:56;29.58;;;14.25;;
32321;SDS011;61553;48.994;8.940;2023-01-26T16:05:22;36.08;;;16.40;;
32321;SDS011;61553;48.994;8.940;2023-01-26T16:07:50;35.47;;;15.02;;
32321;SDS011;61553;48.994;8.940;2023-01-26T16:10:16;21.45;;;11.60;;
32321;SDS011;61553;48.994;8.940;2023-01-26T16:12:43;21.25;;;11.18;;
32321;SDS011;61553;48.994;8.940;2023-01-26T16:18:03;18.05;;;10.60;;
32321;SDS011;61553;48.994;8.940;2023-01-26T16:20:29;44.45;;;22.92;;
32321;SDS011;61553;48.994;8.940;2023-01-26T16:22:55;39.85;;;20.00;;
32321;SDS011;61553;48.994;8.940;2023-01-26T16:25:24;25.10;;;13.98;;
32321;SDS011;61553;48.994;8.940;2023-01-26T16:27:52;21.50;;;12.35;;
32321;SDS011;61553;48.994;8.940;2023-01-26T16:30:18;24.48;;;12.60;;
32321;SDS011;61553;48.994;8.940;2023-01-26T16:32:44;30.63;;;16.92;;